Meteo Giornale » Osservazioni meteo Italia » Grazzanise

ore: 00:55 - Osservazioni Meteo Grazzanise
Lat. 41° 3' N Lon. 14° 4' E Alt. 9 metri s.l.m.

nebbia Europe/Rome

4 °C

Nebbia a Strati Foschia

Temp. 24 Ore

2 °C

15 °C

Nord

5.5 Km/h

Dew point 2 °C

Umidità 86 %

Visibilità  2 Km

Il sole sorge alle ore 06:46

Il sole tramonta alle ore 17:47

Data e Ora Cielo e Fenomeni T °C DP °C Um. % Pres. hPa Vis. km Vento km/h
Oggi h: 00:55 nebbia Nebbia a Strati Foschia 4 2 86 1026 2 N 5.5
Ieri h: 23:55 nebbia Nebbia 4 2 86 1026 0.5 N 5.5
Ieri h: 22:55 foschia Foschia 5 4 93 1026 2 N 3.7
Ieri h: 21:55 foschia Foschia 6 5 93 1026 3 N 3.7
Ieri h: 20:55 foschia Foschia 7 5 87 1026 4 N 0
Ieri h: 19:55 foschia Foschia 8 6 87 1026 4 N 3.7
Ieri h: 18:55 foschia Foschia 9 6 81 1026 5 SO 7.4
Ieri h: 17:55 foschia Foschia 9 7 87 1026 5 O 7.4
Ieri h: 16:55 foschia Foschia 12 9 81 1026 5 O 14.8
Ieri h: 15:55 foschia Foschia 13 8 71 1026 5 O 13
Ieri h: 14:55 foschia Foschia 14 6 58 1026 5 O 13
Ieri h: 12:55 foschia Foschia 15 6 54 1027 5 N 5.5
Ieri h: 10:55 foschia Foschia 12 6 66 1027 4 N 3.7
Ieri h: 09:55 foschia Foschia 9 6 81 1027 3 NE 7.4
Ieri h: 08:55 foschia Foschia 6 4 86 1027 2 N 5.5
Ieri h: 07:55 foschia Foschia 4 2 86 1026 2 N 5.5
Ieri h: 06:55 foschia Foschia 3 1 86 1026 1 NE 9.3
Ieri h: 06:26 nebbia Nebbia 3 1 86 1026 0.5 N 5.5
Ieri h: 05:55 foschia Foschia 2 0 86 1026 1 NE 7.4
Ieri h: 04:55 foschia Foschia 2 0 86 1025 1 N 1.8
Ieri h: 03:55 foschia Foschia 3 1 86 1025 2 N 1.8
Ieri h: 02:55 foschia Foschia 4 2 86 1025 2 N 5.5
Ieri h: 01:55 foschia Foschia 4 2 86 1025 2 N/NE 7.4
Ieri h: 00:55 foschia Foschia 5 3 86 1025 2 N/NE 9.3